Tropical Cyclones
[Index]
Main Index Home Page Stock Weather Photos Extreme Storms Discussion Storm News and Storm Chasing Reports Tropical Cyclones / Hurricanes / Typhoons Weather Data and Links Wild Fires / Bushfires Weather Observation Techniques Weather Picture Catalogue Tornado Pictures and Reports Stock Video Footage and DVDs for sale
Season 2005-2006 Tropical Cyclone LARRY Track Map
Season 2005-2006 Summaries (Operational Data): [AU] [SIO] [SPAC] [SH]
<<- Previous TC | 2005-2006 Season | Next TC ->>

click for intensity scale information  Lat/long Grid: Show Hide

 Date Labels: Show Hide

Operational Tropical Cyclone Data : JTWC Advisories | BoM Warnings

Name: LARRY
Number: 0617

16 Mar 2006 06:00 UTC to 21 Mar 2006 05:00 UTC

    date/time    lat    long     hPa   cat  kts
2006-03-16 06   13.9   158.4    1000         30          
2006-03-16 12   13.5   159.5    1000         30          
2006-03-16 18   13.3   159.5    1000         30          
2006-03-17 00   14.2   160.0    1000         30          
2006-03-17 06   15.2   159.5     998         30          
2006-03-17 12   15.5   158.6     998         30          
2006-03-17 18   16.6   157.6     995    1    35          
2006-03-18 00   17.2   156.6     985    2    50          
2006-03-18 06   17.0   155.5     975    2    60          
2006-03-18 12   17.2   154.2     970    3    65          
2006-03-18 18   17.4   152.8     965    3    70          
2006-03-19 00   17.7   151.1     950    4    90          
2006-03-19 06   17.6   149.7     935    4    90          
2006-03-19 12   17.5   148.3     925    4   100          
2006-03-19 18   17.5   147.0     920    4   105          
2006-03-19 20   17.6   146.2     915    5   110          
2006-03-19 23   17.5   145.5     940    4    90          
2006-03-20 03   17.5   144.5     965    3    70          
2006-03-20 06   17.8   143.7     975    2    60          
2006-03-20 09   18.1   142.8     985    2    50          
2006-03-20 12   18.7   142.2     990    1    40          
2006-03-20 15   19.0   141.2     995         30          
2006-03-21 05   19.8   138.9                 25          
Winds are 10-min average.

Tropical cyclone tracks developed by Michael Bath using operational warnings and advisories and Google Maps.


[Australian Severe Weather index] [Copyright Notice] [Email Contacts] [Search This Site] [Privacy Policy]
Document: tropical_cyclone_larry.htm Updated: 28 May 2013